Latest Weather Observations for Cape Flattery

IDQ60801

Issued at 1:02 am EST Saturday 1 August 2015 (issued every 30 minutes, with the page automatically refreshed every 10 minutes)

About weather observations | Map of weather stations | Latest weather observations for QLD | Other Formats
Station Details ID: 031213 Name: CAPE FLATTERY Lat: -14.97 Lon: 145.31 Height: 18.5 m
Data from the previous 72 hours. | See also: Recent months at Cape Flattery
Date/Time
EST
Temp
°C
App
Temp
°C
Dew
Point
Rel
Hum
%
Delta-T
°C
Wind Press
QNH
hPa
Press
MSL
hPa
Rain
since 9 am
mm
Dir
 
Spd
km/h
Gust
km/h
Spd
kts
Gust
kts
01/01:00am 22.9 20.0 17.1 70 3.6 ESE 28 35 15 19 1017.2 1017.1 0.0
01/12:30am 22.8 20.8 16.4 67 3.9 ESE 22 33 12 18 1017.3 1017.2 0.0
01/12:00am 22.8 20.2 17.7 73 3.2 SE 28 37 15 20 1017.5 1017.4 0.0
 
Date/Time
EST
Temp
°C
App
Temp
°C
Dew
Point
Rel
Hum
%
Delta-T
°C
Wind Press
QNH
hPa
Press
MSL
hPa
Rain
since 9 am
mm
Dir
 
Spd
km/h
Gust
km/h
Spd
kts
Gust
kts
31/11:30pm 22.9 20.2 18.4 76 2.8 SE 30 43 16 23 1017.6 1017.5 0.0
31/11:00pm 23.0 20.2 19.0 78 2.5 SE 32 43 17 23 1017.7 1017.6 0.0
31/10:30pm 22.6 20.1 18.8 79 2.4 SE 30 39 16 21 1017.7 1017.6 0.0
31/10:00pm 22.7 20.1 18.7 78 2.5 SE 30 41 16 22 1017.6 1017.5 0.0
31/09:30pm 23.2 19.9 17.0 68 3.8 SE 30 39 16 21 1017.5 1017.4 0.0
31/09:00pm 23.2 20.4 17.4 70 3.6 SE 28 39 15 21 1017.5 1017.4 0.0
31/08:30pm 22.9 20.4 18.9 78 2.5 SE 30 39 16 21 1017.2 1017.1 0.0
31/08:00pm 22.7 20.6 18.0 75 2.9 SE 26 37 14 20 1017.1 1017.0 0.0
31/07:58pm 22.4 19.5 17.1 72 3.3 SE 28 46 15 25 1017.1 1017.0 0.0
31/07:30pm 23.2 19.5 17.0 68 3.8 SE 32 46 17 25 1016.9 1016.8 0.0
31/07:00pm 23.1 20.0 17.6 71 3.4 SE 30 41 16 22 1016.5 1016.4 0.0
31/06:30pm 22.9 19.7 18.2 75 2.9 SE 32 41 17 22 1016.1 1016.0 0.0
31/06:00pm 23.2 19.8 17.6 71 3.5 SE 32 43 17 23 1015.9 1015.8 0.0
31/05:30pm 23.5 19.4 17.3 68 3.8 SE 35 48 19 26 1015.8 1015.7 0.0
31/05:00pm 24.0 20.2 17.3 66 4.2 SE 33 46 18 25 1015.6 1015.5 0.0
31/04:30pm 24.9 21.2 17.4 63 4.7 SE 33 46 18 25 1015.6 1015.5 0.0
31/04:00pm 25.0 21.5 17.5 63 4.7 SE 32 43 17 23 1015.6 1015.5 0.0
31/03:30pm 25.2 21.1 17.4 62 4.9 SE 35 52 19 28 1015.6 1015.5 0.0
31/03:00pm 25.5 20.4 16.9 59 5.3 SE 39 50 21 27 1015.7 1015.6 0.0
31/02:30pm 25.8 21.0 16.6 56 5.7 SE 37 48 20 26 1015.8 1015.7 0.0
31/02:00pm 25.8 20.6 16.6 56 5.7 SE 39 50 21 27 1016.2 1016.1 0.0
31/01:30pm 26.4 21.3 16.9 56 5.9 SE 39 54 21 29 1016.5 1016.4 0.0
31/01:00pm 26.6 21.9 16.8 55 6.1 SE 37 52 20 28 1016.9 1016.8 0.0
31/12:30pm 26.1 19.9 14.9 50 6.7 SE 41 54 22 29 1017.4 1017.3 0.0
31/12:06pm 26.1 20.2 14.6 49 6.9 SE 39 57 21 31 1017.7 1017.6 0.0
31/12:00pm 26.1 20.4 15.2 51 6.6 SE 39 50 21 27 1017.8 1017.7 0.0
31/11:30am 26.1 21.0 16.9 57 5.7 SE 39 56 21 30 1018.1 1018.0 0.0
31/11:00am 25.7 20.7 17.1 59 5.3 SE 39 52 21 28 1018.4 1018.3 0.0
31/10:30am 24.7 19.9 16.7 61 4.9 SE 37 52 20 28 1018.6 1018.5 0.0
31/10:00am 24.4 20.7 17.4 65 4.3 SE 33 44 18 24 1018.7 1018.6 0.0
31/09:30am 24.6 19.9 16.8 62 4.8 SE 37 52 20 28 1018.8 1018.7 0.0
31/09:00am 24.3 20.3 16.6 62 4.7 SE 33 46 18 25 1018.8 1018.7 1.6
31/08:51am 24.5 21.2 17.0 63 4.6 SE 30 48 16 26 1018.7 1018.6 1.6
31/08:30am 24.2 20.7 16.5 62 4.7 SE 30 43 16 23 1018.7 1018.6 1.6
31/08:00am 23.7 19.4 15.5 60 4.9 SE 32 50 17 27 1018.3 1018.2 1.6
31/07:42am 23.7 19.3 15.2 59 5.1 SE 32 50 17 27 1018.1 1018.0 1.6
31/07:30am 23.2 18.7 15.0 60 4.9 ESE 32 48 17 26 1018.0 1017.9 1.6
31/07:00am 22.5 18.5 15.1 63 4.4 SE 30 39 16 21 1017.7 1017.6 1.6
31/06:30am 22.5 18.0 15.4 64 4.2 SE 33 44 18 24 1017.6 1017.5 1.6
31/06:00am 22.6 18.2 16.6 69 3.7 SE 35 48 19 26 1017.3 1017.2 1.6
31/05:46am 22.4 18.6 16.7 70 3.5 SE 32 54 17 29 1017.4 1017.3 1.6
31/05:30am 22.6 19.8 17.3 72 3.3 SE 28 39 15 21 1017.3 1017.2 1.6
31/05:00am 21.7 18.1 17.1 75 2.8 SE 32 41 17 22 1017.4 1017.3 1.6
31/04:30am 22.5 19.7 16.3 68 3.8 SE 26 37 14 20 1017.4 1017.3 1.6
31/04:00am 22.7 19.2 16.5 68 3.8 SE 30 44 16 24 1017.5 1017.4 1.6
31/03:30am 22.2 19.8 17.3 74 3.0 SE 26 37 14 20 1017.9 1017.8 1.6
31/03:00am 22.3 19.7 17.9 76 2.7 SE 28 39 15 21 1018.1 1018.0 1.6
31/02:30am 20.9 20.1 18.5 86 1.5 SE 20 26 11 14 1018.0 1017.9 1.6
31/02:06am 21.7 18.6 18.3 81 2.1 SSE 32 50 17 27 1018.3 1018.2 1.6
31/02:00am 21.6 17.9 18.4 82 2.0 SSE 35 48 19 26 1018.3 1018.2 1.6
31/01:30am 22.1 19.3 18.3 79 2.4 SE 30 37 16 20 1018.4 1018.3 1.6
31/01:00am 21.9 20.1 19.5 86 1.5 SSE 28 41 15 22 1018.8 1018.7 1.6
31/12:30am 22.1 20.2 19.3 84 1.8 SSE 28 37 15 20 1019.1 1019.0 1.6
31/12:00am 22.1 19.2 18.9 82 2.0 SSE 32 41 17 22 1019.1 1019.0 1.6
 
Date/Time
EST
Temp
°C
App
Temp
°C
Dew
Point
Rel
Hum
%
Delta-T
°C
Wind Press
QNH
hPa
Press
MSL
hPa
Rain
since 9 am
mm
Dir
 
Spd
km/h
Gust
km/h
Spd
kts
Gust
kts
30/11:30pm 22.3 20.3 19.1 82 2.0 SE 28 37 15 20 1019.3 1019.2 1.6
30/11:00pm 21.7 19.4 17.7 78 2.5 ESE 26 37 14 20 1019.3 1019.2 1.6
30/10:44pm 22.5 19.5 18.7 79 2.4 SE 32 50 17 27 1019.5 1019.4 1.6
30/10:30pm 22.5 19.8 19.3 82 2.0 SSE 32 43 17 23 1019.4 1019.3 1.6
30/10:00pm 22.5 19.8 19.3 82 2.0 SE 32 39 17 21 1019.3 1019.2 1.6
30/09:30pm 22.1 19.0 18.3 79 2.4 SE 32 41 17 22 1019.2 1019.1 1.6
30/09:00pm 22.2 18.3 17.8 76 2.7 SE 35 46 19 25 1019.2 1019.1 1.6
30/08:30pm 22.2 19.0 18.6 80 2.3 SSE 33 48 18 26 1019.0 1018.9 1.6
30/08:00pm 22.4 18.9 18.8 80 2.3 SSE 35 46 19 25 1018.9 1018.8 1.6
30/07:30pm 22.3 18.9 18.9 81 2.1 SSE 35 46 19 25 1018.7 1018.6 1.6
30/07:00pm 22.8 18.5 17.9 74 3.0 SSE 37 48 20 26 1018.4 1018.3 1.6
30/06:30pm 22.8 19.2 17.7 73 3.2 SE 33 43 18 23 1018.4 1018.3 1.6
30/06:00pm 23.0 17.9 16.8 68 3.8 SE 39 50 21 27 1018.1 1018.0 1.6
30/05:30pm 23.6 19.8 17.3 67 3.9 SE 33 50 18 27 1017.8 1017.7 1.6
30/05:00pm 23.8 19.0 17.5 68 3.9 SE 39 50 21 27 1017.6 1017.5 1.4
30/04:30pm 24.1 19.3 17.6 67 4.1 SSE 39 56 21 30 1017.4 1017.3 1.4
30/04:00pm 24.2 18.7 17.7 67 4.1 SE 43 57 23 31 1017.2 1017.1 1.4
30/03:30pm 24.0 19.5 18.2 70 3.6 SE 39 54 21 29 1017.4 1017.3 1.4
30/03:00pm 23.1 19.2 18.8 77 2.7 SSE 37 56 20 30 1017.5 1017.4 1.4
30/02:57pm 23.0 19.7 19.2 79 2.4 SSE 35 56 19 30 1017.6 1017.5 1.4
30/02:30pm 22.3 18.9 19.8 86 1.6 SSE 37 46 20 25 1017.8 1017.7 1.4
30/02:00pm 23.7 20.7 19.8 79 2.5 SE 35 50 19 27 1018.0 1017.9 0.6
30/01:30pm 24.9 20.2 19.5 72 3.5 SE 43 57 23 31 1018.2 1018.1 0.6
30/01:00pm 24.4 20.7 20.7 80 2.4 SE 41 56 22 30 1018.6 1018.5 0.6
30/12:38pm 24.3 20.2 20.0 77 2.8 SSE 41 59 22 32 1018.8 1018.7 0.6
30/12:30pm 24.0 20.5 20.3 80 2.4 SSE 39 50 21 27 1018.9 1018.8 0.6
30/12:00pm 22.3 18.2 20.0 87 1.5 SSE 41 56 22 30 1019.2 1019.1 0.4
30/11:30am 24.0 20.2 19.7 77 2.8 SSE 39 50 21 27 1019.4 1019.3 0.0
30/11:00am 25.8 21.6 19.0 66 4.3 SE 39 52 21 28 1019.6 1019.5 0.0
30/10:38am 25.8 21.8 18.5 64 4.6 SE 37 56 20 30 1019.7 1019.6 0.0
30/10:30am 25.6 21.1 19.0 67 4.2 SE 41 56 22 30 1019.7 1019.6 0.0
30/10:00am 24.5 21.0 18.7 70 3.7 SE 35 50 19 27 1019.7 1019.6 0.0
30/09:45am 25.0 21.5 18.7 68 4.0 SE 35 54 19 29 1019.6 1019.5 0.0
30/09:30am 25.0 21.3 19.1 70 3.8 SE 37 50 20 27 1019.6 1019.5 0.0
30/09:08am 24.7 21.0 19.1 71 3.6 SE 37 56 20 30 1019.5 1019.4 0.0
30/09:00am 24.4 19.8 18.1 68 4.0 SE 39 56 21 30 1019.5 1019.4 7.6
30/08:30am 24.1 20.0 18.3 70 3.7 SE 37 56 20 30 1019.3 1019.2 7.6
30/08:00am 23.0 19.1 18.7 77 2.7 SE 37 57 20 31 1018.9 1018.8 7.6
30/07:44am 23.4 20.4 19.8 80 2.3 SE 35 54 19 29 1018.7 1018.6 7.6
30/07:30am 22.2 19.1 19.6 85 1.7 SE 35 48 19 26 1018.6 1018.5 7.6
30/07:00am 22.3 19.5 20.2 88 1.4 SE 35 50 19 27 1018.5 1018.4 7.6
30/06:30am 21.4 17.1 19.5 89 1.2 SE 41 52 22 28 1018.3 1018.2 7.6
30/06:18am 22.0 19.8 20.3 90 1.1 SE 32 50 17 27 1018.1 1018.0 7.6
30/06:00am 22.0 19.8 20.8 93 0.8 SE 33 48 18 26 1018.0 1017.9 7.6
30/05:38am 21.6 19.4 20.4 93 0.8 SE 32 50 17 27 1018.0 1017.9 7.6
30/05:30am 21.7 19.0 20.5 93 0.8 SE 35 46 19 25 1017.9 1017.8 7.6
30/05:00am 21.3 17.1 20.5 95 0.5 SE 43 61 23 33 1017.8 1017.7 7.6
30/04:51am 21.9 19.2 20.4 91 1.0 SE 35 54 19 29 1017.8 1017.7 7.4
30/04:30am 22.0 19.3 20.5 91 1.0 SE 35 52 19 28 1017.7 1017.6 7.4
30/04:00am 21.7 18.5 20.3 92 0.9 SE 37 52 20 28 1017.6 1017.5 7.4
30/03:31am 21.3 19.3 20.8 97 0.3 SE 32 52 17 28 1017.7 1017.6 7.4
30/03:30am 21.4 19.5 20.9 97 0.3 SE 32 46 17 25 1017.7 1017.6 7.4
30/03:03am 22.0 18.9 19.7 87 1.5 SE 35 59 19 32 1017.9 1017.8 5.2
30/03:00am 22.5 19.9 20.6 89 1.2 SE 35 50 19 27 1017.8 1017.7 5.2
30/02:34am 21.6 18.5 20.4 93 0.8 SE 37 56 20 30 1018.0 1017.9 5.2
30/02:30am 21.3 17.2 19.9 92 0.9 SE 41 57 22 31 1018.1 1018.0 5.2
30/02:00am 23.3 19.1 19.7 80 2.3 SE 41 59 22 32 1018.5 1018.4 5.0
30/01:43am 23.2 19.6 19.4 79 2.4 SE 37 61 20 33 1018.6 1018.5 5.0
30/01:30am 23.3 18.9 20.2 83 2.0 SE 43 56 23 30 1018.6 1018.5 5.0
30/01:00am 23.4 19.9 20.3 83 2.0 SE 39 59 21 32 1018.8 1018.7 5.0
30/12:44am 23.3 19.5 19.7 80 2.3 SE 39 59 21 32 1019.0 1018.9 5.0
30/12:30am 23.3 18.9 20.2 83 2.0 SE 43 57 23 31 1019.1 1019.0 5.0
30/12:27am 23.2 19.6 20.2 83 1.9 SE 39 57 21 31 1019.2 1019.1 5.0
30/12:00am 23.3 19.7 20.1 82 2.1 SE 39 52 21 28 1019.4 1019.3 5.0
 
Date/Time
EST
Temp
°C
App
Temp
°C
Dew
Point
Rel
Hum
%
Delta-T
°C
Wind Press
QNH
hPa
Press
MSL
hPa
Rain
since 9 am
mm
Dir
 
Spd
km/h
Gust
km/h
Spd
kts
Gust
kts
29/11:30pm 23.1 19.2 20.4 85 1.8 SE 41 57 22 31 1019.5 1019.4 5.0
29/11:21pm 22.9 19.3 20.2 85 1.7 SE 39 57 21 31 1019.5 1019.4 5.0
29/11:00pm 22.8 18.6 20.5 87 1.5 SE 43 56 23 30 1019.6 1019.5 5.0
29/10:31pm 22.9 18.7 20.6 87 1.5 SE 43 61 23 33 1019.7 1019.6 5.0
29/10:30pm 22.9 18.5 20.4 86 1.6 SE 44 61 24 33 1019.7 1019.6 5.0
29/10:23pm 23.2 19.6 20.9 87 1.5 SE 41 59 22 32 1019.7 1019.6 5.0
29/10:00pm 22.9 19.2 20.8 88 1.4 SE 41 56 22 30 1019.7 1019.6 5.0
29/09:30pm 22.5 19.7 21.1 92 0.9 SE 37 50 20 27 1019.7 1019.6 5.0
29/09:00pm 22.5 20.2 21.3 93 0.8 SE 35 56 19 30 1019.7 1019.6 5.0
29/08:30pm 21.4 19.1 20.6 95 0.5 SE 33 54 18 29 1019.5 1019.4 4.8
29/08:00pm 21.5 17.1 20.5 94 0.6 SE 44 63 24 34 1019.3 1019.2 4.6
29/07:52pm 22.7 19.9 21.0 90 1.1 SE 37 59 20 32 1019.2 1019.1 4.6
29/07:30pm 22.8 20.6 21.4 92 0.9 SE 35 46 19 25 1018.9 1018.8 4.6
29/07:00pm 22.4 19.9 20.9 91 1.0 SE 35 50 19 27 1018.6 1018.5 4.6
29/06:30pm 22.6 19.7 20.9 90 1.1 SE 37 56 20 30 1018.1 1018.0 4.6
29/06:25pm 22.5 20.1 21.1 92 0.9 SE 35 54 19 29 1018.0 1017.9 4.6
29/06:00pm 22.3 19.1 21.1 93 0.8 SE 39 56 21 30 1017.9 1017.8 4.6
29/05:50pm 22.4 20.3 21.6 95 0.5 SE 35 54 19 29 1017.9 1017.8 4.6
29/05:30pm 22.7 20.0 21.3 92 0.9 SE 37 52 20 28 1017.8 1017.7 4.6
29/05:00pm 22.7 19.8 21.5 93 0.8 SE 39 54 21 29 1017.7 1017.6 4.6
29/04:32pm 22.1 19.4 21.3 95 0.5 SE 37 56 20 30 1017.5 1017.4 4.4
29/04:30pm 21.9 18.7 21.1 95 0.5 SE 39 56 21 30 1017.4 1017.3 4.4
29/04:15pm 22.0 20.5 21.7 98 0.2 SSE 32 56 17 30 1017.3 1017.2 4.4
29/04:00pm 22.0 18.8 21.0 94 0.7 SSE 39 50 21 27 1017.5 1017.4 2.8
29/03:44pm 24.0 20.0 20.9 83 2.0 SE 43 63 23 34 1017.4 1017.3 1.2
29/03:30pm 24.2 21.0 21.1 83 2.0 SE 39 54 21 29 1017.5 1017.4 1.2
29/03:00pm 22.9 20.3 21.5 92 0.9 SSE 37 46 20 25 1017.6 1017.5 1.2
29/02:30pm 24.4 20.3 20.7 80 2.4 SSE 43 59 23 32 1017.6 1017.5 0.4
29/02:03pm 23.7 19.1 20.0 80 2.4 SSE 44 63 24 34 1018.1 1018.0 0.4
29/02:00pm 24.6 20.4 20.5 78 2.7 SSE 43 59 23 32 1018.1 1018.0 0.4
29/01:32pm 22.7 18.4 20.4 87 1.5 SSE 43 63 23 34 1018.3 1018.2 0.4
29/01:30pm 22.8 19.1 20.7 88 1.4 SSE 41 56 22 30 1018.3 1018.2 0.4
29/01:00pm 22.2 17.4 20.5 90 1.1 SSE 46 59 25 32 1018.7 1018.6 0.4
29/12:30pm 24.4 19.8 20.9 81 2.3 SSE 46 61 25 33 1019.1 1019.0 0.4
29/12:25pm 24.4 20.6 21.3 83 2.0 SSE 43 61 23 33 1019.2 1019.1 0.4
29/12:00pm 22.8 19.1 21.8 94 0.7 SSE 44 57 24 31 1019.6 1019.5 0.2
29/11:32am 22.7 19.2 21.9 95 0.5 SSE 43 61 23 33 1019.9 1019.8 0.2
29/11:30am 22.2 18.0 21.0 93 0.8 SE 44 61 24 33 1019.9 1019.8 0.2
29/11:14am 23.1 20.5 21.4 90 1.1 SE 37 56 20 30 1020.0 1019.9 0.2
29/11:00am 22.6 18.9 21.6 94 0.7 SE 43 57 23 31 1020.2 1020.1 0.2
29/10:41am 23.9 19.2 19.8 78 2.6 SE 44 63 24 34 1020.1 1020.0 0.0
29/10:30am 24.2 18.8 19.1 73 3.3 SE 46 63 25 34 1020.1 1020.0 0.0
29/10:16am 24.7 20.2 19.8 74 3.2 SE 43 61 23 33 1020.1 1020.0 0.0
29/10:00am 24.9 20.4 20.2 75 3.0 SE 44 61 24 33 1020.2 1020.1 0.0
29/09:30am 22.8 19.1 20.7 88 1.4 SE 41 56 22 30 1020.5 1020.4 0.0
29/09:03am 23.2 19.2 20.2 83 1.9 SSE 41 59 22 32 1020.4 1020.3 0.0
29/09:00am 23.1 18.7 20.1 83 1.9 SSE 43 59 23 32 1020.3 1020.2 0.0
29/08:32am 23.0 18.9 20.7 87 1.5 SE 43 61 23 33 1020.2 1020.1 0.0
29/08:30am 22.8 18.5 20.7 88 1.4 SE 44 61 24 33 1020.2 1020.1 0.0
29/08:10am 22.4 18.6 20.5 89 1.2 SSE 41 59 22 32 1020.0 1019.9 0.0
29/08:00am 22.3 18.7 20.9 92 0.9 SE 41 56 22 30 1019.9 1019.8 0.0
29/07:31am 22.0 17.8 20.5 91 1.0 SE 43 61 23 33 1019.5 1019.4 0.0
29/07:30am 22.1 17.9 20.6 91 1.0 SE 43 59 23 32 1019.5 1019.4 0.0
29/07:00am 23.7 19.9 19.8 79 2.5 SE 39 57 21 31 1018.8 1018.7 0.0
29/06:32am 23.7 20.1 20.2 81 2.3 SE 39 57 21 31 1018.5 1018.4 0.0
29/06:30am 23.8 19.9 20.3 81 2.3 SE 41 57 22 31 1018.5 1018.4 0.0
29/06:27am 23.7 20.1 20.2 81 2.3 SE 39 57 21 31 1018.5 1018.4 0.0
29/06:00am 23.3 20.6 20.4 84 1.9 SE 35 48 19 26 1018.4 1018.3 0.0
29/05:34am 23.1 21.6 21.0 88 1.4 SE 30 48 16 26 1018.4 1018.3 0.0
29/05:30am 22.9 21.3 20.8 88 1.4 SE 30 43 16 23 1018.4 1018.3 0.0
29/05:00am 23.1 20.5 20.6 86 1.6 SE 35 48 19 26 1018.5 1018.4 0.0
29/04:42am 23.0 19.7 20.0 83 1.9 SE 37 56 20 30 1018.4 1018.3 0.0
29/04:30am 23.2 20.0 20.3 84 1.9 SE 37 54 20 29 1018.4 1018.3 0.0
29/04:19am 23.6 20.7 20.1 81 2.3 SE 35 54 19 29 1018.5 1018.4 0.0
29/04:00am 23.6 20.0 20.9 85 1.8 SE 41 54 22 29 1018.3 1018.2 0.0
29/03:30am 23.5 21.0 20.2 82 2.1 SE 33 50 18 27 1018.4 1018.3 0.0
29/03:00am 23.3 19.9 19.9 81 2.2 SE 37 52 20 28 1018.3 1018.2 0.0
29/02:31am 23.5 21.1 20.4 83 2.0 SE 33 52 18 28 1018.5 1018.4 0.0
29/02:30am 23.5 20.8 20.4 83 2.0 SE 35 52 19 28 1018.5 1018.4 0.0
29/02:19am 23.5 20.7 20.2 82 2.1 SE 35 54 19 29 1018.7 1018.6 0.0
29/02:00am 23.7 20.2 20.4 82 2.1 SE 39 50 21 27 1018.7 1018.6 0.0
29/01:30am 23.8 20.0 20.5 82 2.1 SE 41 54 22 29 1019.0 1018.9 0.0

Other Formats:

Comma delimited format used in spreadsheet applications
http://www.bom.gov.au/fwo/IDQ60801/IDQ60801.94188.axf

JavaScript Object Notation format (JSON) in row-major order
http://www.bom.gov.au/fwo/IDQ60801/IDQ60801.94188.json